| time (UTC) | temp C | wind direction | speed KPH | gust KPH | rain 1hr cm | rain 24hr cm | rain mn cm | humidity % | barometer mb |
| 20260509212735 | 31 | 288 | 1.6 | 4.8 | 0.00 | 2.26 | 2.26 | 51 | 1057.6 |
| 20260509212232 | 31 | 155 | 1.6 | 6.4 | 0.00 | 2.26 | 2.26 | 49 | 1057.3 |
| 20260509211728 | 31 | 88 | 0.0 | 1.6 | 0.00 | 2.26 | 2.26 | 52 | 1057.6 |
| 20260509211225 | 31 | 149 | 1.6 | 6.4 | 0.00 | 2.26 | 2.26 | 51 | 1057.6 |
| 20260509210721 | 31 | 96 | 1.6 | 3.2 | 0.00 | 2.26 | 2.26 | 51 | 1057.8 |
| 20260509210219 | 31 | 128 | 1.6 | 3.2 | 0.00 | 2.26 | 2.26 | 50 | 1057.8 |
| 20260509205718 | 31 | 130 | 3.2 | 6.4 | 0.00 | 2.26 | 2.26 | 49 | 1057.7 |
| 20260509205218 | 31 | 199 | 1.6 | 3.2 | 0.00 | 2.26 | 2.26 | 48 | 1058.1 |
| 20260509204714 | 31 | 94 | 1.6 | 4.8 | 0.00 | 2.26 | 2.26 | 54 | 1058.2 |
| 20260509204211 | 31 | 184 | 1.6 | 3.2 | 0.00 | 2.26 | 2.26 | 52 | 1058.3 |
| 20260509203707 | 31 | 148 | 1.6 | 6.4 | 0.00 | 2.26 | 2.26 | 52 | 1058.1 |
| 20260509203206 | 30 | 124 | 1.6 | 4.8 | 0.00 | 2.26 | 2.26 | 52 | 1058.2 |
| 20260509202700 | 30 | 199 | 3.2 | 9.7 | 0.00 | 2.26 | 2.26 | 55 | 1058.3 |
| 20260509202155 | 30 | 308 | 1.6 | 6.4 | 0.00 | 2.26 | 2.26 | 54 | 1058.4 |
| 20260509201651 | 31 | 231 | 6.4 | 11.3 | 0.00 | 2.26 | 2.26 | 53 | 1058.7 |
| 20260509201148 | 31 | 252 | 3.2 | 4.8 | 0.00 | 2.26 | 2.26 | 54 | 1058.4 |
| 20260509200644 | 30 | 131 | 3.2 | 4.8 | 0.00 | 2.26 | 2.26 | 55 | 1058.5 |
| 20260509200139 | 30 | 192 | 3.2 | 9.7 | 0.00 | 2.26 | 2.26 | 54 | 1058.6 |
| 20260509195636 | 30 | 242 | 1.6 | 12.9 | 0.00 | 2.26 | 2.26 | 55 | 1058.7 |
| 20260509195131 | 30 | 216 | 1.6 | 4.8 | 0.00 | 2.26 | 2.26 | 59 | 1058.8 |
| 20260509194631 | 30 | 240 | 4.8 | 9.7 | 0.00 | 2.26 | 2.26 | 57 | 1058.8 |
| 20260509194128 | 30 | 160 | 3.2 | 4.8 | 0.00 | 2.26 | 2.26 | 54 | 1058.9 |
| 20260509193624 | 30 | 200 | 1.6 | 3.2 | 0.00 | 2.26 | 2.26 | 59 | 1058.7 |
| 20260509193120 | 30 | 245 | 1.6 | 3.2 | 0.00 | 2.26 | 2.26 | 57 | 1058.9 |
| 20260509192617 | 30 | 194 | 1.6 | 3.2 | 0.00 | 2.26 | 2.26 | 57 | 1058.9 |
| 20260509192112 | 30 | 204 | 4.8 | 9.7 | 0.00 | 2.26 | 2.26 | 61 | 1058.8 |
| 20260509191606 | 30 | 222 | 8.0 | 11.3 | 0.00 | 2.26 | 2.26 | 56 | 1059.1 |
| 20260509191103 | 30 | 132 | 1.6 | 3.2 | 0.00 | 2.26 | 2.26 | 57 | 1059.0 |
| 20260509190559 | 30 | 218 | 3.2 | 9.7 | 0.00 | 2.26 | 2.26 | 58 | 1059.1 |
| 20260509190057 | 29 | 242 | 3.2 | 6.4 | 0.00 | 2.26 | 2.26 | 62 | 1059.2 |
| 20260509185555 | 29 | 338 | 0.0 | 4.8 | 0.00 | 2.26 | 2.26 | 59 | 1059.2 |
| 20260509185050 | 29 | 209 | 3.2 | 6.4 | 0.00 | 2.26 | 2.26 | 58 | 1059.1 |
| 20260509184549 | 29 | 280 | 1.6 | 4.8 | 0.00 | 2.26 | 2.26 | 60 | 1059.2 |
| 20260509184045 | 28 | 13 | 1.6 | 1.6 | 0.00 | 2.26 | 2.26 | 60 | 1059.2 |
| 20260509183540 | 28 | 141 | 3.2 | 3.2 | 0.00 | 2.26 | 2.26 | 60 | 1059.4 |
| 20260509183036 | 28 | 65 | 4.8 | 4.8 | 0.00 | 2.26 | 2.26 | 60 | 1059.4 |
| 20260509182533 | 28 | 240 | 4.8 | 9.7 | 0.00 | 2.26 | 2.26 | 62 | 1059.5 |
| 20260509182030 | 29 | 252 | 3.2 | 3.2 | 0.00 | 2.26 | 2.26 | 61 | 1059.6 |
| 20260509181528 | 28 | 305 | 1.6 | 4.8 | 0.00 | 2.26 | 2.26 | 63 | 1059.6 |
| 20260509181025 | 28 | 211 | 1.6 | 1.6 | 0.00 | 2.26 | 2.26 | 61 | 1059.5 |
| 20260509180521 | 28 | 191 | 3.2 | 6.4 | 0.00 | 2.26 | 2.26 | 63 | 1059.8 |
| 20260509180019 | 28 | 333 | 3.2 | 3.2 | 0.00 | 2.26 | 2.26 | 64 | 1059.7 |
| 20260509175520 | 28 | 330 | 3.2 | 4.8 | 0.00 | 2.26 | 2.26 | 69 | 1059.9 |
| 20260509175017 | 28 | 70 | 1.6 | 3.2 | 0.00 | 2.26 | 2.26 | 68 | 1060.2 |
| 20260509174513 | 28 | 308 | 4.8 | 6.4 | 0.00 | 2.26 | 2.26 | 66 | 1060.0 |
| 20260509174008 | 28 | 132 | 0.0 | 1.6 | 0.00 | 2.26 | 2.26 | 67 | 1060.3 |
| 20260509173503 | 28 | 85 | 1.6 | 4.8 | 0.00 | 2.26 | 2.26 | 69 | 1060.2 |
| 20260509172959 | 28 | 311 | 1.6 | 1.6 | 0.00 | 2.26 | 2.26 | 67 | 1060.3 |
| 20260509172457 | 27 | 335 | 1.6 | 3.2 | 0.00 | 2.26 | 2.26 | 71 | 1060.2 |
| 20260509171952 | 27 | 335 | 1.6 | 3.2 | 0.00 | 2.26 | 2.26 | 69 | 1060.4 |
| 20260509171448 | 27 | 185 | 0.0 | 3.2 | 0.00 | 2.26 | 2.26 | 69 | 1060.5 |
| 20260509170945 | 27 | 250 | 3.2 | 3.2 | 0.00 | 2.26 | 2.26 | 71 | 1060.3 |
| 20260509170440 | 26 | 83 | 0.0 | 1.6 | 0.00 | 2.26 | 2.26 | 73 | 1060.5 |
| 20260509165936 | 26 | 358 | 6.4 | 9.7 | 0.00 | 2.26 | 2.26 | 69 | 1060.5 |
| 20260509165430 | 26 | 312 | 0.0 | 3.2 | 0.00 | 2.26 | 2.26 | 70 | 1060.6 |
| 20260509164926 | 26 | 65 | 3.2 | 4.8 | 0.00 | 2.26 | 2.26 | 72 | 1060.6 |
| 20260509164422 | 26 | 222 | 1.6 | 6.4 | 0.00 | 2.26 | 2.26 | 71 | 1060.5 |
| 20260509163918 | 25 | 295 | 6.4 | 11.3 | 0.00 | 2.26 | 2.26 | 71 | 1060.7 |
| 20260509163416 | 25 | 274 | 3.2 | 6.4 | 0.00 | 2.26 | 2.26 | 74 | 1060.5 |
| 20260509162915 | 25 | 327 | 0.0 | 3.2 | 0.00 | 2.26 | 2.26 | 75 | 1060.6 |
| 20260509162414 | 25 | 214 | 1.6 | 4.8 | 0.00 | 2.26 | 2.26 | 75 | 1060.7 |
| 20260509161909 | 25 | 350 | 6.4 | 12.9 | 0.00 | 2.26 | 2.26 | 74 | 1060.7 |
| 20260509161406 | 25 | 256 | 6.4 | 11.3 | 0.00 | 2.26 | 2.26 | 74 | 1060.7 |
| 20260509160901 | 25 | 273 | 3.2 | 9.7 | 0.00 | 2.26 | 2.26 | 77 | 1060.6 |
| 20260509160357 | 25 | 287 | 6.4 | 9.7 | 0.00 | 2.26 | 2.26 | 73 | 1060.5 |
| 20260509155852 | 24 | 310 | 6.4 | 12.9 | 0.00 | 2.26 | 2.26 | 76 | 1060.7 |
| 20260509155349 | 24 | 7 | 6.4 | 9.7 | 0.00 | 2.26 | 2.26 | 75 | 1060.6 |
| 20260509154846 | 24 | 324 | 3.2 | 4.8 | 0.00 | 2.26 | 2.26 | 74 | 1060.7 |
| 20260509154342 | 24 | 81 | 1.6 | 9.7 | 0.00 | 2.26 | 2.26 | 76 | 1060.9 |
| 20260509153839 | 23 | 83 | 1.6 | 6.4 | 0.00 | 2.26 | 2.26 | 78 | 1060.9 |
| 20260509153336 | 23 | 312 | 4.8 | 6.4 | 0.00 | 2.26 | 2.26 | 76 | 1060.7 |
| 20260509152833 | 23 | 20 | 3.2 | 11.3 | 0.00 | 2.26 | 2.26 | 75 | 1060.7 |
| 20260509152329 | 23 | 329 | 4.8 | 9.7 | 0.00 | 2.26 | 2.26 | 78 | 1060.6 |
| 20260509151826 | 23 | 301 | 1.6 | 6.4 | 0.00 | 2.26 | 2.26 | 75 | 1060.8 |
| 20260509151322 | 23 | 268 | 1.6 | 4.8 | 0.00 | 2.26 | 2.26 | 78 | 1060.7 |
| 20260509150821 | 23 | 10 | 4.8 | 9.7 | 0.00 | 2.26 | 2.26 | 76 | 1060.7 |
| 20260509150318 | 23 | 17 | 3.2 | 9.7 | 0.00 | 2.26 | 2.26 | 77 | 1060.6 |
| 20260509145815 | 23 | 306 | 3.2 | 3.2 | 0.00 | 2.26 | 2.26 | 76 | 1060.7 |
| 20260509145309 | 23 | 333 | 1.6 | 3.2 | 0.00 | 2.26 | 2.26 | 77 | 1060.7 |
| 20260509144807 | 22 | 14 | 0.0 | 6.4 | 0.00 | 2.26 | 2.26 | 77 | 1060.8 |
| 20260509144303 | 22 | 3 | 3.2 | 6.4 | 0.00 | 2.26 | 2.26 | 75 | 1060.8 |
| 20260509143800 | 22 | 313 | 1.6 | 3.2 | 0.00 | 2.26 | 2.26 | 75 | 1060.7 |
| 20260509143257 | 22 | 257 | 3.2 | 3.2 | 0.00 | 2.26 | 2.26 | 75 | 1061.0 |
| 20260509142753 | 22 | 306 | 3.2 | 6.4 | 0.00 | 2.26 | 2.26 | 73 | 1060.8 |
| 20260509142249 | 22 | 314 | 1.6 | 1.6 | 0.00 | 2.26 | 2.26 | 75 | 1061.0 |
| 20260509141745 | 21 | 41 | 0.0 | 6.4 | 0.00 | 2.26 | 2.26 | 77 | 1061.0 |
| 20260509141242 | 21 | 28 | 1.6 | 4.8 | 0.00 | 2.26 | 2.26 | 78 | 1060.9 |
| 20260509140739 | 20 | 80 | 0.0 | 0.0 | 0.00 | 2.26 | 2.26 | 84 | 1060.9 |
| 20260509140236 | 20 | 335 | 3.2 | 3.2 | 0.00 | 2.26 | 2.26 | 85 | 1060.7 |
| 20260509135733 | 20 | 256 | 1.6 | 1.6 | 0.00 | 2.26 | 2.26 | 86 | 1060.8 |
| 20260509135231 | 20 | 5 | 1.6 | 3.2 | 0.00 | 2.26 | 2.26 | 86 | 1060.9 |
| 20260509134728 | 20 | 332 | 3.2 | 6.4 | 0.00 | 2.26 | 2.26 | 84 | 1060.9 |
| 20260509134226 | 20 | 327 | 1.6 | 4.8 | 0.00 | 2.26 | 2.26 | 84 | 1060.6 |
| 20260509133723 | 20 | 1 | 1.6 | 4.8 | 0.00 | 2.26 | 2.26 | 84 | 1060.5 |
| 20260509133219 | 20 | 303 | 3.2 | 6.4 | 0.00 | 2.26 | 2.26 | 84 | 1060.7 |
| 20260509132718 | 20 | 326 | 4.8 | 6.4 | 0.00 | 2.26 | 2.26 | 85 | 1060.4 |
| 20260509132216 | 18 | 60 | 1.6 | 4.8 | 0.00 | 2.26 | 2.26 | 88 | 1060.2 |
| 20260509131712 | 18 | 62 | 0.0 | 3.2 | 0.00 | 2.26 | 2.26 | 90 | 1060.4 |
| 20260509131209 | 18 | 20 | 0.0 | 4.8 | 0.00 | 2.26 | 2.26 | 90 | 1060.2 |
| 20260509130705 | 17 | 6 | 1.6 | 3.2 | 0.00 | 2.26 | 2.26 | 91 | 1060.0 |
| 20260509130202 | 17 | 53 | 0.0 | 1.6 | 0.00 | 2.26 | 2.26 | 93 | 1059.8 |
| 20260509125658 | 17 | 97 | 0.0 | 0.0 | 0.00 | 2.26 | 2.26 | 93 | 1059.8 |
| 20260509125155 | 17 | 76 | 1.6 | 4.8 | 0.00 | 2.26 | 2.26 | 93 | 1059.5 |
| 20260509124651 | 17 | 87 | 0.0 | 3.2 | 0.00 | 2.26 | 2.26 | 94 | 1059.6 |
| 20260509124148 | 17 | 337 | 0.0 | 3.2 | 0.00 | 2.26 | 2.26 | 94 | 1059.5 |
| 20260509123646 | 17 | 63 | 0.0 | 3.2 | 0.00 | 2.26 | 2.26 | 94 | 1059.5 |
| 20260509123143 | 16 | 30 | 1.6 | 3.2 | 0.00 | 2.26 | 2.26 | 95 | 1059.3 |
| 20260509122638 | 16 | 50 | 0.0 | 1.6 | 0.00 | 2.26 | 2.26 | 96 | 1059.2 |
| 20260509122136 | 16 | 45 | 0.0 | 3.2 | 0.00 | 2.26 | 2.26 | 97 | 1059.2 |
| 20260509121632 | 16 | 50 | 1.6 | 3.2 | 0.00 | 2.26 | 2.26 | 97 | 1059.2 |
| 20260509121130 | 16 | 27 | 1.6 | 3.2 | 0.00 | 2.26 | 2.26 | 97 | 1059.3 |
| 20260509120628 | 16 | 46 | 0.0 | 4.8 | 0.00 | 2.26 | 2.26 | 97 | 1059.1 |
| 20260509120126 | 16 | 68 | 1.6 | 3.2 | 0.00 | 2.26 | 2.26 | 97 | 1058.9 |
| 20260509115623 | 16 | 2 | 4.8 | 6.4 | 0.00 | 2.26 | 2.26 | 96 | 1059.0 |
| 20260509115121 | 16 | 24 | 1.6 | 1.6 | 0.00 | 2.26 | 2.26 | 95 | 1058.9 |
| 20260509114618 | 16 | 40 | 1.6 | 1.6 | 0.00 | 2.26 | 2.26 | 95 | 1058.9 |
| 20260509114117 | 17 | 50 | 1.6 | 3.2 | 0.00 | 2.26 | 2.26 | 94 | 1058.8 |
| 20260509113615 | 17 | 13 | 4.8 | 9.7 | 0.00 | 2.26 | 2.26 | 93 | 1058.7 |
| 20260509113112 | 17 | 300 | 1.6 | 3.2 | 0.00 | 2.26 | 2.26 | 92 | 1058.4 |
| 20260509112608 | 17 | 240 | 1.6 | 6.4 | 0.00 | 2.26 | 2.26 | 89 | 1058.5 |
| 20260509112106 | 17 | 237 | 0.0 | 1.6 | 0.00 | 2.26 | 2.26 | 87 | 1058.5 |
| 20260509111603 | 17 | 209 | 1.6 | 3.2 | 0.00 | 2.26 | 2.26 | 87 | 1058.2 |
| 20260509111059 | 17 | 237 | 1.6 | 1.6 | 0.00 | 2.26 | 2.26 | 90 | 1058.0 |
| 20260509110557 | 17 | 303 | 0.0 | 1.6 | 0.00 | 2.26 | 2.26 | 89 | 1057.5 |
| 20260509110054 | 17 | 99 | 0.0 | 1.6 | 0.00 | 2.26 | 2.26 | 86 | 1057.3 |
| 20260509105552 | 17 | 67 | 0.0 | 1.6 | 0.00 | 2.26 | 2.26 | 87 | 1057.0 |
| 20260509105049 | 17 | 85 | 0.0 | 1.6 | 0.00 | 2.26 | 2.26 | 87 | 1056.9 |
| 20260509104546 | 17 | 77 | 3.2 | 4.8 | 0.00 | 2.26 | 2.26 | 86 | 1057.1 |
| 20260509104043 | 18 | 154 | 0.0 | 4.8 | 0.00 | 2.26 | 2.26 | 87 | 1056.9 |
| 20260509103540 | 17 | 207 | 1.6 | 6.4 | 0.00 | 2.26 | 2.26 | 89 | 1056.9 |
| 20260509103039 | 17 | 146 | 8.0 | 12.9 | 0.00 | 2.26 | 2.26 | 90 | 1057.0 |
| 20260509102536 | 17 | 188 | 3.2 | 4.8 | 0.00 | 2.26 | 2.26 | 95 | 1057.2 |
| 20260509102032 | 17 | 86 | 1.6 | 6.4 | 0.00 | 2.26 | 2.26 | 96 | 1057.6 |
| 20260509101529 | 17 | 131 | 4.8 | 6.4 | 0.00 | 2.26 | 2.26 | 97 | 1057.5 |
| 20260509101026 | 17 | 159 | 3.2 | 11.3 | 0.00 | 2.26 | 2.26 | 98 | 1057.2 |
| 20260509100523 | 17 | 155 | 4.8 | 11.3 | 0.00 | 2.26 | 2.26 | 99 | 1057.2 |
| 20260509100020 | 17 | 306 | 3.2 | 6.4 | 0.00 | 2.26 | 2.26 | 99 | 1057.6 |
| 20260509095516 | 17 | 206 | 3.2 | 6.4 | 0.00 | 2.26 | 2.26 | 99 | 1058.1 |
| 20260509095014 | 17 | 112 | 3.2 | 6.4 | 0.00 | 2.26 | 2.26 | 99 | 1058.1 |
| 20260509094510 | 17 | 140 | 3.2 | 11.3 | 0.00 | 2.26 | 2.26 | 99 | 1058.1 |
| 20260509094007 | 17 | 88 | 6.4 | 11.3 | 0.00 | 2.26 | 2.26 | 99 | 1058.4 |
| 20260509093506 | 17 | 116 | 11.3 | 20.9 | 0.00 | 2.26 | 2.26 | 99 | 1058.2 |
| 20260509093003 | 17 | 200 | 8.0 | 12.9 | 0.00 | 2.26 | 2.26 | 99 | 1058.3 |
| 20260509092500 | 16 | 205 | 4.8 | 12.9 | 0.00 | 2.26 | 2.26 | 99 | 1058.5 |
| 20260509091959 | 16 | 276 | 6.4 | 9.7 | 0.00 | 2.26 | 2.26 | 99 | 1058.7 |
| 20260509091456 | 16 | 149 | 3.2 | 4.8 | 0.00 | 2.26 | 2.26 | 99 | 1059.1 |
| 20260509090953 | 16 | 171 | 1.6 | 11.3 | 0.00 | 2.26 | 2.26 | 99 | 1058.9 |
| 20260509090451 | 16 | 162 | 3.2 | 4.8 | 0.00 | 2.26 | 2.26 | 99 | 1059.4 |
| 20260509085948 | 16 | 233 | 14.5 | 16.1 | 0.00 | 2.26 | 2.26 | 99 | 1059.9 |
| 20260509085445 | 16 | 205 | 4.8 | 6.4 | 0.00 | 2.26 | 2.26 | 99 | 1059.7 |
| 20260509084941 | 16 | 251 | 3.2 | 4.8 | 0.00 | 2.26 | 2.26 | 99 | 1059.2 |
| 20260509084438 | 16 | 128 | 0.0 | 6.4 | 0.00 | 2.26 | 2.26 | 99 | 1059.2 |
| 20260509083935 | 16 | 127 | 0.0 | 1.6 | 0.00 | 2.26 | 2.26 | 99 | 1059.1 |
| 20260509083432 | 16 | 214 | 0.0 | 1.6 | 0.00 | 2.26 | 2.26 | 99 | 1059.6 |
| 20260509082929 | 16 | 210 | 3.2 | 4.8 | 0.18 | 2.26 | 2.26 | 99 | 1059.7 |
| 20260509082426 | 16 | 184 | 1.6 | 4.8 | 0.18 | 2.26 | 2.26 | 99 | 1059.6 |
| 20260509081922 | 16 | 92 | 3.2 | 12.9 | 0.30 | 2.24 | 2.24 | 99 | 1059.8 |
| 20260509081420 | 16 | 95 | 8.0 | 12.9 | 0.61 | 2.24 | 2.24 | 99 | 1059.9 |
| 20260509080917 | 16 | 93 | 11.3 | 14.5 | 0.79 | 2.18 | 2.18 | 99 | 1060.7 |
| 20260509080415 | 16 | 104 | 3.2 | 11.3 | 1.50 | 2.13 | 2.13 | 99 | 1060.9 |
| 20260509075913 | 16 | 87 | 9.7 | 12.9 | 2.16 | 2.03 | 2.03 | 99 | 1061.2 |
| 20260509075410 | 16 | 78 | 4.8 | 12.9 | 1.98 | 1.85 | 1.85 | 99 | 1061.0 |
| 20260509074907 | 16 | 58 | 8.0 | 16.1 | 3.07 | 1.65 | 1.65 | 99 | 1061.5 |
| 20260509074405 | 16 | 82 | 9.7 | 12.9 | 3.66 | 1.50 | 1.50 | 99 | 1061.5 |
| 20260509073901 | 17 | 24 | 4.8 | 11.3 | 3.17 | 1.09 | 1.09 | 99 | 1061.5 |
| 20260509073358 | 17 | 65 | 3.2 | 12.9 | 4.27 | 0.86 | 0.86 | 99 | 1061.6 |
| 20260509072854 | 18 | 98 | 6.4 | 20.9 | 2.59 | 0.43 | 0.43 | 99 | 1061.7 |
| 20260509072350 | 18 | 29 | 6.4 | 22.5 | 0.43 | 0.08 | 0.08 | 99 | 1061.8 |
| 20260509071847 | 18 | 43 | 6.4 | 11.3 | 0.00 | 0.00 | 0.00 | 99 | 1061.4 |
| 20260509071344 | 18 | 4 | 1.6 | 4.8 | 0.00 | 0.00 | 0.00 | 99 | 1061.6 |
| 20260509070842 | 17 | 20 | 1.6 | 4.8 | 0.00 | 0.00 | 0.00 | 99 | 1061.4 |
| 20260509070338 | 17 | 23 | 1.6 | 3.2 | 0.00 | 0.00 | 0.00 | 99 | 1061.5 |
| 20260509065834 | 17 | 33 | 0.0 | 1.6 | 0.00 | 0.00 | 0.00 | 99 | 1061.6 |
| 20260509065331 | 17 | 34 | 3.2 | 4.8 | 0.00 | 0.00 | 0.00 | 99 | 1061.3 |
| 20260509064826 | 17 | 72 | 1.6 | 4.8 | 0.00 | 0.00 | 0.00 | 99 | 1061.1 |
| 20260509064325 | 17 | 46 | 0.0 | 3.2 | 0.00 | 0.00 | 0.00 | 99 | 1060.6 |
| 20260509063822 | 17 | 68 | 0.0 | 1.6 | 0.00 | 0.00 | 0.00 | 99 | 1060.0 |
| 20260509063318 | 17 | 55 | 1.6 | 4.8 | 0.00 | 0.00 | 0.00 | 99 | 1059.4 |
| 20260509062815 | 17 | 66 | 1.6 | 1.6 | 0.00 | 0.00 | 0.00 | 99 | 1059.1 |
| 20260509062312 | 17 | 66 | 0.0 | 1.6 | 0.00 | 0.00 | 0.00 | 99 | 1058.9 |
| 20260509061809 | 17 | 125 | 0.0 | 0.0 | 0.00 | 0.00 | 0.00 | 99 | 1058.8 |
| 20260509061308 | 17 | 127 | 0.0 | 0.0 | 0.00 | 0.00 | 0.00 | 99 | 1058.8 |
| 20260509060804 | 17 | 137 | 0.0 | 0.0 | 0.00 | 0.00 | 0.00 | 99 | 1058.7 |
| 20260509060302 | 17 | 117 | 0.0 | 0.0 | 0.00 | 0.00 | 0.00 | 99 | 1058.8 |
| 20260509055757 | 17 | 142 | 0.0 | 3.2 | 0.00 | 0.00 | 0.00 | 99 | 1058.6 |
| 20260509055253 | 17 | 124 | 3.2 | 3.2 | 0.00 | 0.00 | 0.00 | 99 | 1058.6 |
| 20260509054749 | 17 | 92 | 1.6 | 1.6 | 0.00 | 0.00 | 0.00 | 99 | 1058.9 |
| 20260509054246 | 17 | 129 | 0.0 | 1.6 | 0.00 | 0.00 | 0.00 | 99 | 1058.9 |
| 20260509053745 | 17 | 180 | 0.0 | 1.6 | 0.00 | 0.00 | 0.00 | 99 | 1059.0 |
| 20260509053241 | 17 | 147 | 0.0 | 3.2 | 0.00 | 0.00 | 0.00 | 99 | 1059.1 |
| 20260509052739 | 17 | 131 | 0.0 | 1.6 | 0.00 | 0.00 | 0.00 | 99 | 1059.0 |
| 20260509052237 | 17 | 136 | 1.6 | 1.6 | 0.00 | 0.00 | 0.00 | 99 | 1059.0 |
| 20260509051734 | 17 | 178 | 0.0 | 1.6 | 0.00 | 0.00 | 0.00 | 99 | 1058.8 |
| 20260509051232 | 17 | 140 | 0.0 | 4.8 | 0.00 | 0.00 | 0.00 | 99 | 1058.9 |
| 20260509050728 | 17 | 196 | 0.0 | 1.6 | 0.00 | 0.00 | 0.00 | 99 | 1059.0 |
| 20260509050225 | 17 | 113 | 1.6 | 3.2 | 0.00 | 0.00 | 0.00 | 99 | 1059.0 |
| 20260509045722 | 17 | 88 | 1.6 | 6.4 | 0.00 | 0.00 | 0.00 | 99 | 1058.9 |
| 20260509045219 | 18 | 141 | 0.0 | 4.8 | 0.00 | 0.00 | 0.00 | 99 | 1059.0 |
| 20260509044716 | 17 | 101 | 1.6 | 3.2 | 0.00 | 0.00 | 0.00 | 99 | 1059.0 |
| 20260509044214 | 18 | 145 | 0.0 | 1.6 | 0.00 | 0.00 | 0.00 | 99 | 1059.1 |
| 20260509043710 | 18 | 109 | 1.6 | 3.2 | 0.00 | 0.00 | 0.00 | 99 | 1059.1 |
| 20260509043206 | 18 | 102 | 0.0 | 1.6 | 0.00 | 0.00 | 0.00 | 99 | 1059.2 |
| 20260509042703 | 18 | 89 | 1.6 | 6.4 | 0.00 | 0.00 | 0.00 | 99 | 1059.4 |
| 20260509042158 | 18 | 61 | 4.8 | 4.8 | 0.00 | 0.00 | 0.00 | 99 | 1059.3 |
| 20260509041655 | 18 | 139 | 1.6 | 3.2 | 0.00 | 0.00 | 0.00 | 99 | 1059.4 |
| 20260509041153 | 18 | 111 | 1.6 | 3.2 | 0.00 | 0.00 | 0.00 | 99 | 1059.4 |
| 20260509040651 | 18 | 71 | 1.6 | 3.2 | 0.00 | 0.00 | 0.00 | 99 | 1059.3 |
| 20260509040148 | 18 | 102 | 0.0 | 1.6 | 0.00 | 0.00 | 0.00 | 98 | 1059.1 |
| 20260509035644 | 18 | 168 | 1.6 | 4.8 | 0.00 | 0.00 | 0.00 | 98 | 1058.9 |
| 20260509035141 | 18 | 81 | 4.8 | 4.8 | 0.00 | 0.00 | 0.00 | 98 | 1058.9 |
| 20260509034639 | 18 | 101 | 1.6 | 1.6 | 0.00 | 0.00 | 0.00 | 98 | 1058.9 |
| 20260509034136 | 18 | 151 | 1.6 | 3.2 | 0.00 | 0.00 | 0.00 | 98 | 1058.8 |
| 20260509033633 | 18 | 154 | 0.0 | 1.6 | 0.00 | 0.00 | 0.00 | 98 | 1058.7 |
| 20260509033130 | 18 | 124 | 0.0 | 1.6 | 0.00 | 0.00 | 0.00 | 97 | 1058.9 |
| 20260509032627 | 18 | 136 | 0.0 | 1.6 | 0.00 | 0.00 | 0.00 | 97 | 1058.7 |
| 20260509032124 | 18 | 140 | 0.0 | 1.6 | 0.00 | 0.00 | 0.00 | 97 | 1058.7 |
| 20260509031622 | 19 | 130 | 1.6 | 3.2 | 0.00 | 0.00 | 0.00 | 97 | 1058.6 |
| 20260509031119 | 19 | 173 | 0.0 | 1.6 | 0.00 | 0.00 | 0.00 | 96 | 1058.8 |
| 20260509030617 | 19 | 77 | 1.6 | 3.2 | 0.00 | 0.00 | 0.00 | 96 | 1058.5 |
| 20260509030114 | 19 | 79 | 0.0 | 1.6 | 0.00 | 0.00 | 0.00 | 96 | 1058.5 |
| 20260509025610 | 19 | 82 | 1.6 | 1.6 | 0.00 | 0.00 | 0.00 | 95 | 1058.5 |
| 20260509025105 | 19 | 148 | 0.0 | 1.6 | 0.00 | 0.00 | 0.00 | 95 | 1058.6 |
| 20260509024601 | 19 | 144 | 0.0 | 0.0 | 0.00 | 0.00 | 0.00 | 95 | 1058.5 |
| 20260509024057 | 20 | 126 | 0.0 | 0.0 | 0.00 | 0.00 | 0.00 | 94 | 1058.6 |
| 20260509023556 | 20 | 106 | 0.0 | 0.0 | 0.00 | 0.00 | 0.00 | 94 | 1058.5 |
| 20260509023053 | 20 | 118 | 0.0 | 1.6 | 0.00 | 0.00 | 0.00 | 95 | 1058.5 |
| 20260509022549 | 20 | 121 | 0.0 | 0.0 | 0.00 | 0.00 | 0.00 | 94 | 1058.5 |
| 20260509022047 | 19 | 103 | 3.2 | 4.8 | 0.00 | 0.00 | 0.00 | 95 | 1058.3 |
| 20260509021543 | 19 | 59 | 0.0 | 1.6 | 0.00 | 0.00 | 0.00 | 94 | 1058.2 |
| 20260509021040 | 19 | 84 | 1.6 | 3.2 | 0.00 | 0.00 | 0.00 | 94 | 1058.1 |
| 20260509020539 | 19 | 61 | 1.6 | 3.2 | 0.00 | 0.00 | 0.00 | 94 | 1058.1 |
| 20260509020035 | 20 | 90 | 0.0 | 3.2 | 0.00 | 0.00 | 0.00 | 94 | 1057.9 |
| 20260509015534 | 20 | 74 | 1.6 | 3.2 | 0.00 | 0.00 | 0.00 | 94 | 1057.8 |
| 20260509015031 | 20 | 96 | 1.6 | 1.6 | 0.00 | 0.00 | 0.00 | 93 | 1058.0 |
| 20260509014528 | 20 | 94 | 0.0 | 0.0 | 0.00 | 0.00 | 0.00 | 93 | 1057.9 |
| 20260509014025 | 20 | 146 | 0.0 | 0.0 | 0.00 | 0.00 | 0.00 | 92 | 1057.7 |
| 20260509013522 | 20 | 118 | 0.0 | 1.6 | 0.00 | 0.00 | 0.00 | 92 | 1057.8 |
| 20260509013017 | 20 | 76 | 0.0 | 3.2 | 0.00 | 0.00 | 0.00 | 91 | 1057.7 |
| 20260509012514 | 20 | 148 | 0.0 | 1.6 | 0.00 | 0.00 | 0.00 | 90 | 1057.6 |
| 20260509012011 | 20 | 89 | 0.0 | 1.6 | 0.00 | 0.00 | 0.00 | 90 | 1057.3 |
| 20260509011509 | 21 | 73 | 0.0 | 1.6 | 0.00 | 0.00 | 0.00 | 89 | 1057.6 |
| 20260509011006 | 21 | 150 | 0.0 | 3.2 | 0.00 | 0.00 | 0.00 | 88 | 1057.3 |
| 20260509010504 | 21 | 127 | 0.0 | 1.6 | 0.00 | 0.00 | 0.00 | 87 | 1057.5 |
| 20260509010000 | 21 | 133 | 1.6 | 4.8 | 0.00 | 0.00 | 0.00 | 87 | 1057.3 |
| 20260509005458 | 21 | 161 | 3.2 | 4.8 | 0.00 | 0.00 | 0.00 | 86 | 1057.5 |
| 20260509004957 | 22 | 158 | 0.0 | 1.6 | 0.00 | 0.00 | 0.00 | 84 | 1057.3 |
| 20260509004454 | 22 | 147 | 0.0 | 1.6 | 0.00 | 0.00 | 0.00 | 83 | 1057.5 |
| 20260509003952 | 23 | 119 | 0.0 | 3.2 | 0.00 | 0.00 | 0.00 | 81 | 1057.5 |
| 20260509003450 | 23 | 168 | 0.0 | 1.6 | 0.00 | 0.00 | 0.00 | 81 | 1057.2 |
| 20260509002946 | 23 | 150 | 0.0 | 6.4 | 0.00 | 0.00 | 0.00 | 80 | 1057.1 |
| 20260509002444 | 23 | 187 | 0.0 | 3.2 | 0.00 | 0.00 | 0.00 | 79 | 1057.0 |
| 20260509001941 | 23 | 156 | 1.6 | 4.8 | 0.00 | 0.00 | 0.00 | 80 | 1057.1 |
| 20260509001438 | 23 | 187 | 0.0 | 3.2 | 0.00 | 0.00 | 0.00 | 79 | 1057.0 |
| 20260509000934 | 23 | 171 | 3.2 | 4.8 | 0.00 | 0.00 | 0.00 | 78 | 1057.2 |
| 20260509000433 | 23 | 129 | 0.0 | 6.4 | 0.00 | 0.00 | 0.00 | 77 | 1057.0 |
| 20260508235928 | 24 | 96 | 6.4 | 11.3 | 0.00 | 0.00 | 0.00 | 77 | 1057.1 |
| 20260508235426 | 24 | 176 | 3.2 | 4.8 | 0.00 | 0.00 | 0.00 | 76 | 1057.0 |
| 20260508234923 | 25 | 150 | 1.6 | 9.7 | 0.00 | 0.00 | 0.00 | 75 | 1056.9 |
| 20260508234420 | 25 | 159 | 3.2 | 4.8 | 0.00 | 0.00 | 0.00 | 76 | 1057.0 |
| 20260508233917 | 24 | 179 | 0.0 | 3.2 | 0.00 | 0.00 | 0.00 | 76 | 1057.0 |
| 20260508233417 | 24 | 179 | 1.6 | 6.4 | 0.00 | 0.00 | 0.00 | 76 | 1057.1 |
| 20260508232913 | 24 | 179 | 1.6 | 3.2 | 0.00 | 0.00 | 0.00 | 76 | 1057.2 |
| 20260508232410 | 24 | 205 | 3.2 | 3.2 | 0.00 | 0.00 | 0.00 | 76 | 1057.2 |
| 20260508231908 | 24 | 117 | 3.2 | 9.7 | 0.00 | 0.00 | 0.00 | 76 | 1057.1 |
| 20260508231405 | 25 | 129 | 6.4 | 9.7 | 0.00 | 0.00 | 0.00 | 74 | 1057.3 |
| 20260508230901 | 25 | 186 | 4.8 | 14.5 | 0.00 | 0.00 | 0.00 | 75 | 1057.1 |
| 20260508230358 | 24 | 173 | 1.6 | 6.4 | 0.00 | 0.00 | 0.00 | 76 | 1057.1 |
| 20260508225855 | 23 | 127 | 1.6 | 3.2 | 0.00 | 0.00 | 0.00 | 77 | 1056.9 |
| 20260508225351 | 23 | 144 | 3.2 | 6.4 | 0.00 | 0.00 | 0.00 | 77 | 1057.1 |
| 20260508224850 | 23 | 129 | 0.0 | 6.4 | 0.00 | 0.00 | 0.00 | 78 | 1057.1 |
| 20260508224347 | 23 | 76 | 1.6 | 3.2 | 0.00 | 0.00 | 0.00 | 79 | 1057.1 |
| 20260508223844 | 23 | 185 | 3.2 | 3.2 | 0.00 | 0.00 | 0.00 | 79 | 1057.2 |
| 20260508223341 | 23 | 165 | 3.2 | 4.8 | 0.00 | 0.00 | 0.00 | 79 | 1057.3 |
| 20260508222839 | 23 | 91 | 1.6 | 1.6 | 0.00 | 0.00 | 0.00 | 79 | 1057.2 |
| 20260508222336 | 23 | 97 | 3.2 | 6.4 | 0.00 | 0.00 | 0.00 | 79 | 1057.3 |
| 20260508221832 | 23 | 164 | 1.6 | 4.8 | 0.00 | 0.00 | 0.00 | 78 | 1057.3 |
| 20260508221328 | 23 | 137 | 1.6 | 3.2 | 0.00 | 0.00 | 0.00 | 78 | 1057.5 |
| 20260508220825 | 24 | 135 | 3.2 | 4.8 | 0.00 | 0.00 | 0.00 | 75 | 1057.3 |
| 20260508220321 | 25 | 115 | 1.6 | 4.8 | 0.00 | 0.00 | 0.00 | 73 | 1057.6 |
| 20260508215818 | 25 | 112 | 4.8 | 9.7 | 0.00 | 0.00 | 0.00 | 72 | 1057.7 |
| 20260508215314 | 23 | 116 | 4.8 | 4.8 | 0.00 | 0.00 | 0.00 | 76 | 1057.6 |
| 20260508214811 | 23 | 186 | 1.6 | 3.2 | 0.00 | 0.00 | 0.00 | 79 | 1057.8 |
| 20260508214308 | 23 | 100 | 3.2 | 3.2 | 0.00 | 0.00 | 0.00 | 78 | 1057.8 |
| 20260508213805 | 23 | 176 | 3.2 | 4.8 | 0.00 | 0.00 | 0.00 | 76 | 1058.0 |
| 20260508213302 | 23 | 167 | 1.6 | 4.8 | 0.00 | 0.00 | 0.00 | 77 | 1058.1 |